West Woods, Connecticut
Current Conditions -  °F | °C
As of 8:43 PM on Wednesday 26 Nov 2014 (Local Time) from KPOU Reporting Station
Light Snow Light Snow  
Wind Chill: 25°   Ceiling: 1200
Heat Index: 34°   Visibility: 2mi
Dew Point: 30°   Wind: 13mph
Humidity: 85%   Direction: 350°N
Pressure: 29.86"   Gusts: 22mph
Location:  41.8554°N, 73.4421°W
Report Text: KPOU 270143Z 35011G19KT 2SM -SN BR BKN012 OVC017 01/M01 A2986 RMK AO2 P0000 T00111011
Loading
Personal Weather Stations






























Interactive Weather Map New forecast layout! Learn more

10-Day Weather Forecast

Advertisements
Track Severe Weather on mobile